createdAt,value
2018-06-05T00:00:43.257Z,6.80
2018-06-05T00:03:11.225Z,6.97
2018-06-05T00:05:39.216Z,6.00
2018-06-05T00:08:07.194Z,7.10
2018-06-05T00:10:35.348Z,7.20
2018-06-05T00:13:03.368Z,6.50
2018-06-05T00:15:31.344Z,7.17
2018-06-05T00:17:59.378Z,7.57
2018-06-05T00:20:27.425Z,7.00
2018-06-05T00:22:55.540Z,7.13
2018-06-05T00:25:23.585Z,7.50
2018-06-05T00:27:51.566Z,6.97
2018-06-05T00:30:19.586Z,7.37
2018-06-05T00:32:47.523Z,7.03
2018-06-05T00:35:15.602Z,6.80
2018-06-05T00:37:43.722Z,7.47
2018-06-05T00:40:11.724Z,7.50
2018-06-05T00:42:39.791Z,7.03
2018-06-05T00:45:07.721Z,8.03
2018-06-05T00:47:35.759Z,8.40
2018-06-05T00:50:03.771Z,7.83
2018-06-05T00:52:31.758Z,7.27
2018-06-05T00:54:59.804Z,8.13
2018-06-05T00:57:27.829Z,8.47
2018-06-05T00:59:55.792Z,7.80
2018-06-05T01:02:23.816Z,7.77
2018-06-05T01:04:51.796Z,8.33
2018-06-05T01:07:19.955Z,7.97
2018-06-05T01:09:47.904Z,8.83
2018-06-05T01:12:15.880Z,8.27
2018-06-05T01:14:43.979Z,8.03
2018-06-05T01:17:12.004Z,8.30
2018-06-05T01:19:40.089Z,8.10
2018-06-05T01:22:08.127Z,8.30
2018-06-05T01:24:36.079Z,8.23
2018-06-05T01:27:04.345Z,7.57
2018-06-05T01:29:32.407Z,8.20
2018-06-05T01:32:00.439Z,7.90
2018-06-05T01:34:28.508Z,8.03
2018-06-05T01:36:56.560Z,8.47
2018-06-05T01:39:24.587Z,7.33
2018-06-05T01:41:52.601Z,7.80
2018-06-05T01:44:20.615Z,7.70
2018-06-05T01:46:48.630Z,8.10
2018-06-05T01:49:16.620Z,8.33
2018-06-05T01:51:44.600Z,9.23
2018-06-05T01:54:12.615Z,8.87
2018-06-05T01:56:40.566Z,8.40
2018-06-05T01:59:08.555Z,7.20
2018-06-05T02:01:36.542Z,8.13
2018-06-05T02:04:04.616Z,8.30
2018-06-05T02:06:32.657Z,8.60
2018-06-05T02:09:00.815Z,8.90
2018-06-05T02:11:28.884Z,8.00
2018-06-05T02:13:56.891Z,8.37
2018-06-05T02:16:24.891Z,8.30
2018-06-05T02:18:52.884Z,8.80
2018-06-05T02:21:20.916Z,8.33
2018-06-05T02:23:48.996Z,8.90
2018-06-05T02:26:17.055Z,8.50
2018-06-05T02:28:45.081Z,8.50
2018-06-05T02:31:13.139Z,8.23
2018-06-05T02:33:41.120Z,8.40
2018-06-05T02:36:09.135Z,8.50
2018-06-05T02:38:37.211Z,8.33
2018-06-05T02:41:05.322Z,8.70
2018-06-05T02:43:33.327Z,9.03
2018-06-05T02:46:01.310Z,8.97
2018-06-05T02:48:29.327Z,8.83
2018-06-05T02:50:57.307Z,8.73
2018-06-05T02:53:25.442Z,8.70
2018-06-05T02:55:53.492Z,8.53
2018-06-05T02:58:21.569Z,8.83
2018-06-05T03:00:49.562Z,9.50
2018-06-05T03:03:17.534Z,9.27
2018-06-05T03:05:45.535Z,8.70
2018-06-05T03:08:13.524Z,8.80
2018-06-05T03:10:41.620Z,9.10
2018-06-05T03:13:09.663Z,10.00
2018-06-05T03:15:37.701Z,8.17
2018-06-05T03:18:05.835Z,9.47
2018-06-05T03:20:33.866Z,9.33
2018-06-05T03:23:01.912Z,9.73
2018-06-05T03:25:29.910Z,10.80
2018-06-05T03:27:57.860Z,9.73
2018-06-05T03:30:25.806Z,9.50
2018-06-05T03:32:53.795Z,9.33
2018-06-05T03:35:21.809Z,11.20
2018-06-05T03:37:49.889Z,9.87
2018-06-05T03:40:17.907Z,9.60
2018-06-05T03:42:45.956Z,9.77
2018-06-05T03:45:14.687Z,9.10
2018-06-05T03:47:42.709Z,8.90
2018-06-05T03:50:10.682Z,7.93
2018-06-05T03:52:38.725Z,9.97
2018-06-05T03:55:06.767Z,8.97
2018-06-05T03:57:34.890Z,8.73
2018-06-05T04:00:03.095Z,8.27
2018-06-05T04:02:31.073Z,8.10
2018-06-05T04:04:59.138Z,8.40
2018-06-05T04:07:27.151Z,7.80
2018-06-05T04:09:55.208Z,7.67
2018-06-05T04:12:23.164Z,8.33
2018-06-05T04:14:51.232Z,8.57
2018-06-05T04:17:19.491Z,10.73
2018-06-05T04:19:47.808Z,15.83
2018-06-05T04:22:15.993Z,22.27
2018-06-05T04:24:43.978Z,18.60
2018-06-05T04:27:12.160Z,17.83
2018-06-05T04:29:40.213Z,18.97
2018-06-05T04:32:08.403Z,18.40
2018-06-05T04:34:36.485Z,17.90
2018-06-05T04:37:04.449Z,14.00
2018-06-05T04:39:32.535Z,14.40
2018-06-05T04:42:00.550Z,12.57
2018-06-05T04:44:35.208Z,11.50
2018-06-05T04:47:03.293Z,11.40
2018-06-05T04:49:31.400Z,11.03
2018-06-05T04:51:59.459Z,10.57
2018-06-05T04:54:27.472Z,11.13
2018-06-05T04:56:55.497Z,11.40
2018-06-05T04:59:23.471Z,11.53
2018-06-05T05:01:51.445Z,12.00
2018-06-05T05:04:19.515Z,12.50
2018-06-05T05:06:47.550Z,12.03
2018-06-05T05:09:15.993Z,11.27
2018-06-05T05:11:44.018Z,10.83
2018-06-05T05:14:12.060Z,10.67
2018-06-05T05:16:40.245Z,11.80
2018-06-05T05:19:08.354Z,11.60
2018-06-05T05:21:36.343Z,12.73
2018-06-05T05:24:04.450Z,11.30
2018-06-05T05:26:32.445Z,11.33
2018-06-05T05:29:00.509Z,10.40
2018-06-05T05:31:28.568Z,14.43
2018-06-05T05:33:56.624Z,11.37
2018-06-05T05:36:24.808Z,13.13
2018-06-05T05:38:52.919Z,10.97
2018-06-05T05:41:20.961Z,10.63
2018-06-05T05:43:49.002Z,10.27
2018-06-05T05:46:17.022Z,9.77
2018-06-05T05:48:45.008Z,10.57
2018-06-05T05:51:13.077Z,10.17
2018-06-05T05:53:41.223Z,9.87
2018-06-05T05:56:09.235Z,10.43
2018-06-05T05:58:37.280Z,10.03
2018-06-05T06:01:05.445Z,9.93
2018-06-05T06:03:33.487Z,9.90
2018-06-05T06:06:01.560Z,9.87
2018-06-05T06:08:29.785Z,10.80
2018-06-05T06:10:57.917Z,10.30
2018-06-05T06:13:25.977Z,9.97
2018-06-05T06:15:54.159Z,9.57
2018-06-05T06:18:22.236Z,9.40
2018-06-05T06:20:50.355Z,9.63
2018-06-05T06:23:18.562Z,8.77
2018-06-05T06:25:46.591Z,9.80
2018-06-05T06:28:14.736Z,9.03
2018-06-05T06:30:42.841Z,9.00
2018-06-05T06:33:10.871Z,9.70
2018-06-05T06:35:38.996Z,9.90
2018-06-05T06:38:06.999Z,10.17
2018-06-05T06:40:35.069Z,9.70
2018-06-05T06:43:03.497Z,10.03
2018-06-05T06:45:31.613Z,9.17
2018-06-05T06:47:59.625Z,8.33
2018-06-05T06:50:27.809Z,7.93
2018-06-05T06:52:55.831Z,8.67
2018-06-05T06:55:23.831Z,7.83
2018-06-05T06:57:52.777Z,7.13
2018-06-05T07:00:21.227Z,5.57
2018-06-05T07:02:49.688Z,7.53
2018-06-05T07:05:18.032Z,8.23
2018-06-05T07:07:46.419Z,7.53
2018-06-05T07:10:14.794Z,8.07
2018-06-05T07:12:43.104Z,7.83
2018-06-05T07:15:11.632Z,8.27
2018-06-05T07:17:40.076Z,8.80
2018-06-05T07:20:08.400Z,7.90
2018-06-05T07:22:36.728Z,7.83
2018-06-05T07:25:05.082Z,7.60
2018-06-05T07:27:33.549Z,7.87
2018-06-05T07:30:02.084Z,7.87
2018-06-05T07:32:30.472Z,7.60
2018-06-05T07:34:58.884Z,7.37
2018-06-05T07:37:27.298Z,7.53
2018-06-05T07:39:56.314Z,7.87
2018-06-05T07:42:25.232Z,7.93
2018-06-05T07:44:54.127Z,8.37
2018-06-05T07:47:22.554Z,7.13
2018-06-05T07:49:50.985Z,8.53
2018-06-05T07:52:19.398Z,7.97
2018-06-05T07:54:47.838Z,9.03
2018-06-05T07:57:16.178Z,7.07
2018-06-05T07:59:44.545Z,7.97
2018-06-05T08:02:12.970Z,6.97
2018-06-05T08:04:42.881Z,7.77
2018-06-05T08:07:11.485Z,6.23
2018-06-05T08:09:39.936Z,7.13
2018-06-05T08:12:09.059Z,7.00
2018-06-05T08:14:37.591Z,6.62
2018-06-05T08:17:05.981Z,6.35
2018-06-05T08:19:34.319Z,7.20
2018-06-05T08:22:02.796Z,7.70
2018-06-05T08:24:31.224Z,8.43
2018-06-05T08:26:59.717Z,7.92
2018-06-05T08:29:28.021Z,8.20
2018-06-05T08:31:56.467Z,8.38
2018-06-05T08:34:25.019Z,8.75
2018-06-05T08:36:53.514Z,7.70
2018-06-05T08:39:21.816Z,8.50
2018-06-05T08:41:50.156Z,8.38
2018-06-05T08:44:18.507Z,8.30
2018-06-05T08:46:47.487Z,12.53
2018-06-05T08:49:16.899Z,8.15
2018-06-05T08:51:46.228Z,8.60
2018-06-05T08:54:15.315Z,8.80
2018-06-05T08:56:43.820Z,7.97
2018-06-05T08:59:12.178Z,8.58
2018-06-05T09:01:40.605Z,8.70
2018-06-05T09:04:09.023Z,7.97
2018-06-05T09:06:37.460Z,9.05
2018-06-05T09:09:08.027Z,7.78
2018-06-05T09:11:36.455Z,9.90
2018-06-05T09:14:05.135Z,9.00
2018-06-05T09:16:34.003Z,8.70
2018-06-05T09:19:03.297Z,7.80
2018-06-05T09:21:31.901Z,9.10
2018-06-05T09:24:00.259Z,9.05
2018-06-05T09:26:28.718Z,7.87
2018-06-05T09:28:57.329Z,9.25
2018-06-05T09:31:25.760Z,7.85
2018-06-05T09:33:54.167Z,8.58
2018-06-05T09:36:22.575Z,8.58
2018-06-05T09:38:51.013Z,9.38
2018-06-05T09:41:19.517Z,9.18
2018-06-05T09:43:47.831Z,7.55
2018-06-05T09:46:16.212Z,8.93
2018-06-05T09:48:44.692Z,8.78
2018-06-05T09:51:13.004Z,8.65
2018-06-05T09:53:41.889Z,7.65
2018-06-05T09:56:10.287Z,8.25
2018-06-05T09:58:38.555Z,7.72
2018-06-05T10:01:06.769Z,7.70
2018-06-05T10:03:34.796Z,7.50
2018-06-05T10:06:02.900Z,7.45
2018-06-05T10:08:31.430Z,7.30
2018-06-05T10:10:59.497Z,7.17
2018-06-05T10:13:27.692Z,7.62
2018-06-05T10:15:55.751Z,8.28
2018-06-05T10:18:23.827Z,7.95
2018-06-05T10:20:51.901Z,8.43
2018-06-05T10:23:19.931Z,7.47
2018-06-05T10:25:48.070Z,8.30
2018-06-05T10:28:16.304Z,8.68
2018-06-05T10:30:44.725Z,8.43
2018-06-05T10:33:12.977Z,8.28
2018-06-05T10:35:41.534Z,7.80
2018-06-05T10:38:10.090Z,8.78
2018-06-05T10:40:38.226Z,9.83
2018-06-05T10:43:06.344Z,11.13
2018-06-05T10:45:34.590Z,11.60
2018-06-05T10:48:02.879Z,10.63
2018-06-05T10:50:31.104Z,9.80
2018-06-05T10:52:59.179Z,10.33
2018-06-05T10:55:27.373Z,9.67
2018-06-05T10:57:55.766Z,10.77
2018-06-05T11:00:24.268Z,9.33
2018-06-05T11:02:52.564Z,9.90
2018-06-05T11:05:21.197Z,9.83
2018-06-05T11:07:49.618Z,9.63
2018-06-05T11:10:17.781Z,11.43
2018-06-05T11:12:46.255Z,10.03
2018-06-05T11:15:14.402Z,9.20
2018-06-05T11:17:42.492Z,5.93
2018-06-05T11:20:10.893Z,8.60
2018-06-05T11:22:39.742Z,7.97
2018-06-05T11:25:08.119Z,7.57
2018-06-05T11:27:36.449Z,8.50
2018-06-05T11:30:05.351Z,8.57
2018-06-05T11:32:33.867Z,7.90
2018-06-05T11:35:02.205Z,7.00
2018-06-05T11:37:30.589Z,7.67
2018-06-05T11:39:59.029Z,7.30
2018-06-05T11:42:27.449Z,7.20
2018-06-05T11:44:55.808Z,8.57
2018-06-05T11:47:24.108Z,8.80
2018-06-05T11:49:52.975Z,8.20
2018-06-05T11:52:21.301Z,8.07
2018-06-05T11:54:50.045Z,7.83
2018-06-05T11:57:18.473Z,7.53
2018-06-05T11:59:46.990Z,6.40
2018-06-05T12:02:15.394Z,6.57
2018-06-05T12:04:44.017Z,7.90
2018-06-05T12:07:12.418Z,6.33
2018-06-05T12:09:40.757Z,8.00
2018-06-05T12:12:09.152Z,8.17
2018-06-05T12:14:37.591Z,7.40
2018-06-05T12:17:05.974Z,8.07
2018-06-05T12:19:34.313Z,8.40
2018-06-05T12:22:02.772Z,7.28
2018-06-05T12:24:31.325Z,9.48
2018-06-05T12:26:59.807Z,8.45
2018-06-05T12:29:28.209Z,6.50
2018-06-05T12:31:56.678Z,6.35
2018-06-05T12:34:24.987Z,6.15
2018-06-05T12:36:53.451Z,6.25
2018-06-05T12:39:21.918Z,7.15
2018-06-05T12:41:50.543Z,6.12
2018-06-05T12:44:18.857Z,7.35
2018-06-05T12:46:47.197Z,7.10
2018-06-05T12:49:15.519Z,6.75
2018-06-05T12:51:43.970Z,6.53
2018-06-05T12:54:12.504Z,6.75
2018-06-05T12:56:40.850Z,6.80
2018-06-05T12:59:09.116Z,6.70
2018-06-05T13:01:37.435Z,7.17
2018-06-05T13:04:06.057Z,7.00
2018-06-05T13:06:34.548Z,7.90
2018-06-05T13:09:03.881Z,7.53
2018-06-05T13:11:32.404Z,7.50
2018-06-05T13:14:00.770Z,8.63
2018-06-05T13:16:29.129Z,8.90
2018-06-05T13:18:57.535Z,8.40
2018-06-05T13:21:26.156Z,7.92
2018-06-05T13:23:54.483Z,8.48
2018-06-05T13:26:22.865Z,8.73
2018-06-05T13:28:51.216Z,8.33
2018-06-05T13:31:19.532Z,8.30
2018-06-05T13:33:47.923Z,9.25
2018-06-05T13:36:16.260Z,9.13
2018-06-05T13:38:44.838Z,9.45
2018-06-05T13:41:13.283Z,9.30
2018-06-05T13:43:41.682Z,8.93
2018-06-05T13:46:10.960Z,8.20
2018-06-05T13:48:39.242Z,10.00
2018-06-05T13:51:07.571Z,8.30
2018-06-05T13:53:35.899Z,8.77
2018-06-05T13:56:04.165Z,9.05
2018-06-05T13:58:32.494Z,8.53
2018-06-05T14:01:00.843Z,8.68
2018-06-05T14:03:29.168Z,8.18
2018-06-05T14:05:57.397Z,9.38
2018-06-05T14:08:25.766Z,7.62
2018-06-05T14:10:54.095Z,8.43
2018-06-05T14:13:22.393Z,8.33
2018-06-05T14:15:50.767Z,7.72
2018-06-05T14:18:19.069Z,7.55
2018-06-05T14:20:47.119Z,8.33
2018-06-05T14:23:15.267Z,7.50
2018-06-05T14:25:43.268Z,7.20
2018-06-05T14:28:11.390Z,8.70
2018-06-05T14:30:39.663Z,7.70
2018-06-05T14:33:07.852Z,8.90
2018-06-05T14:35:35.842Z,7.97
2018-06-05T14:38:03.830Z,7.37
2018-06-05T14:40:31.890Z,7.33
2018-06-05T14:43:00.099Z,7.92
2018-06-05T14:45:28.215Z,7.67
2018-06-05T14:47:56.228Z,7.58
2018-06-05T14:50:24.369Z,8.10
2018-06-05T14:52:52.504Z,7.70
2018-06-05T14:55:20.579Z,7.83
2018-06-05T14:57:48.616Z,7.25
2018-06-05T15:00:16.632Z,7.43
2018-06-05T15:02:44.987Z,7.27
2018-06-05T15:05:13.324Z,7.55
2018-06-05T15:07:41.352Z,7.12
2018-06-05T15:10:09.364Z,7.05
2018-06-05T15:12:37.383Z,6.78
2018-06-05T15:15:05.784Z,7.00
2018-06-05T15:17:33.874Z,6.50
2018-06-05T15:20:01.888Z,7.12
2018-06-05T15:22:29.975Z,6.85
2018-06-05T15:24:58.877Z,6.83
2018-06-05T15:27:27.635Z,6.53
2018-06-05T15:29:55.807Z,5.53
2018-06-05T15:32:23.857Z,5.50
2018-06-05T15:34:51.971Z,5.37
2018-06-05T15:37:19.932Z,5.67
2018-06-05T15:39:47.967Z,6.12
2018-06-05T15:42:15.975Z,5.62
2018-06-05T15:44:44.027Z,5.90
2018-06-05T15:47:12.039Z,5.35
2018-06-05T15:49:40.053Z,4.87
2018-06-05T15:52:08.081Z,4.80
2018-06-05T15:54:36.091Z,4.53
2018-06-05T15:57:04.166Z,4.83
2018-06-05T15:59:32.229Z,4.60
2018-06-05T16:02:00.323Z,4.73
2018-06-05T16:04:28.372Z,5.03
2018-06-05T16:06:56.365Z,5.43
2018-06-05T16:09:24.507Z,5.83
2018-06-05T16:11:52.526Z,4.92
2018-06-05T16:14:20.580Z,4.60
2018-06-05T16:16:48.672Z,5.93
2018-06-05T16:19:16.730Z,5.70
2018-06-05T16:21:44.903Z,5.07
2018-06-05T16:24:12.881Z,5.10
2018-06-05T16:26:40.917Z,5.17
2018-06-05T16:29:09.031Z,4.80
2018-06-05T16:31:37.066Z,4.90
2018-06-05T16:34:05.195Z,5.60
2018-06-05T16:36:33.302Z,5.17
2018-06-05T16:39:01.348Z,5.10
2018-06-05T16:41:29.621Z,5.20
2018-06-05T16:43:57.796Z,5.10
2018-06-05T16:46:25.976Z,5.30
2018-06-05T16:48:54.024Z,5.07
2018-06-05T16:51:22.190Z,5.17
2018-06-05T16:53:50.352Z,5.03
2018-06-05T16:56:18.532Z,5.30
2018-06-05T16:58:46.601Z,5.23
2018-06-05T17:01:14.817Z,5.73
2018-06-05T17:03:43.060Z,5.30
2018-06-05T17:06:11.164Z,5.17
2018-06-05T17:08:39.317Z,4.67
2018-06-05T17:11:07.404Z,5.30
2018-06-05T17:13:35.569Z,5.50
2018-06-05T17:16:03.809Z,5.00
2018-06-05T17:18:31.990Z,5.30
2018-06-05T17:21:00.491Z,5.33
2018-06-05T17:23:28.622Z,5.20
2018-06-05T17:25:56.810Z,6.20
2018-06-05T17:28:24.895Z,5.60
2018-06-05T17:30:53.021Z,5.13
2018-06-05T17:33:21.145Z,5.60
2018-06-05T17:35:49.325Z,5.33
2018-06-05T17:38:17.489Z,5.50
2018-06-05T17:40:45.559Z,5.00
2018-06-05T17:43:13.772Z,5.80
2018-06-05T17:45:43.596Z,5.20
2018-06-05T17:48:11.707Z,6.00
2018-06-05T17:50:40.064Z,5.47
2018-06-05T17:53:08.204Z,5.40
2018-06-05T17:55:36.367Z,6.03
2018-06-05T17:58:04.586Z,5.33
2018-06-05T18:00:32.862Z,4.80
2018-06-05T18:03:00.905Z,5.67
2018-06-05T18:05:29.191Z,5.97
2018-06-05T18:07:57.342Z,6.23
2018-06-05T18:10:25.768Z,5.53
2018-06-05T18:12:53.949Z,5.43
2018-06-05T18:15:22.119Z,5.53
2018-06-05T18:17:50.284Z,5.70
2018-06-05T18:20:18.605Z,6.00
2018-06-05T18:22:46.811Z,5.43
2018-06-05T18:25:15.317Z,7.17
2018-06-05T18:27:43.631Z,5.43
2018-06-05T18:30:11.746Z,5.13
2018-06-05T18:32:39.870Z,5.80
2018-06-05T18:35:07.986Z,5.87
2018-06-05T18:37:36.295Z,5.50
2018-06-05T18:40:04.529Z,6.07
2018-06-05T18:42:32.670Z,6.33
2018-06-05T18:45:00.742Z,6.27
2018-06-05T18:47:29.109Z,5.77
2018-06-05T18:49:57.384Z,6.00
2018-06-05T18:52:25.487Z,5.90
2018-06-05T18:54:53.618Z,5.57
2018-06-05T18:57:21.856Z,5.43
2018-06-05T18:59:50.140Z,5.83
2018-06-05T19:02:18.436Z,6.10
2018-06-05T19:04:46.636Z,5.80
2018-06-05T19:07:14.942Z,5.30
2018-06-05T19:09:43.275Z,5.57
2018-06-05T19:12:11.483Z,6.17
2018-06-05T19:14:39.697Z,6.37
2018-06-05T19:17:07.846Z,6.47
2018-06-05T19:19:36.155Z,6.00
2018-06-05T19:22:04.184Z,6.10
2018-06-05T19:24:32.504Z,6.87
2018-06-05T19:27:00.857Z,5.73
2018-06-05T19:29:28.960Z,6.27
2018-06-05T19:31:57.148Z,6.20
2018-06-05T19:34:25.405Z,6.40
2018-06-05T19:36:53.641Z,6.03
2018-06-05T19:39:21.768Z,5.97
2018-06-05T19:41:49.957Z,6.50
2018-06-05T19:44:18.124Z,6.60
2018-06-05T19:46:46.445Z,6.40
2018-06-05T19:49:14.721Z,7.03
2018-06-05T19:51:43.055Z,6.90
2018-06-05T19:54:11.396Z,6.57
2018-06-05T19:56:39.674Z,6.33
2018-06-05T19:59:08.025Z,6.60
2018-06-05T20:01:36.363Z,6.57
2018-06-05T20:04:04.658Z,7.07
2018-06-05T20:06:32.889Z,7.17
2018-06-05T20:09:01.198Z,7.07
2018-06-05T20:11:29.430Z,7.17
2018-06-05T20:13:57.715Z,6.70
2018-06-05T20:16:26.019Z,6.70
2018-06-05T20:18:54.309Z,7.57
2018-06-05T20:21:22.467Z,6.90
2018-06-05T20:23:50.830Z,6.80
2018-06-05T20:26:18.990Z,7.07
2018-06-05T20:28:47.161Z,6.63
2018-06-05T20:31:15.324Z,7.00
2018-06-05T20:33:43.446Z,6.90
2018-06-05T20:36:11.630Z,6.87
2018-06-05T20:38:39.723Z,8.00
2018-06-05T20:41:07.866Z,7.23
2018-06-05T20:43:35.974Z,7.03
2018-06-05T20:46:04.034Z,7.87
2018-06-05T20:48:32.141Z,7.73
2018-06-05T20:51:00.268Z,7.50
2018-06-05T20:53:28.449Z,8.10
2018-06-05T20:55:56.510Z,7.30
2018-06-05T20:58:24.650Z,7.77
2018-06-05T21:00:52.880Z,7.60
2018-06-05T21:03:21.085Z,7.13
2018-06-05T21:05:49.456Z,7.63
2018-06-05T21:08:17.574Z,7.77
2018-06-05T21:10:45.628Z,8.70
2018-06-05T21:13:13.690Z,8.00
2018-06-05T21:15:41.764Z,7.43
2018-06-05T21:18:09.791Z,7.10
2018-06-05T21:20:37.880Z,7.40
2018-06-05T21:23:06.176Z,7.33
2018-06-05T21:25:34.252Z,7.70
2018-06-05T21:28:02.282Z,7.53
2018-06-05T21:30:30.331Z,8.30
2018-06-05T21:32:58.359Z,7.50
2018-06-05T21:35:26.353Z,7.03
2018-06-05T21:37:54.396Z,8.23
2018-06-05T21:40:22.413Z,7.17
2018-06-05T21:42:50.421Z,7.20
2018-06-05T21:45:18.521Z,7.80
2018-06-05T21:47:46.588Z,7.43
2018-06-05T21:50:14.702Z,7.93
2018-06-05T21:52:42.703Z,8.23
2018-06-05T21:55:11.013Z,7.30
2018-06-05T21:57:39.063Z,8.30
2018-06-05T22:00:07.151Z,7.40
2018-06-05T22:02:35.219Z,8.13
2018-06-05T22:05:03.280Z,7.73
2018-06-05T22:07:31.318Z,7.67
2018-06-05T22:09:59.292Z,8.40
2018-06-05T22:12:27.319Z,8.27
2018-06-05T22:14:55.338Z,8.40
2018-06-05T22:17:23.292Z,8.90
2018-06-05T22:19:51.294Z,8.40
2018-06-05T22:22:19.257Z,8.13
2018-06-05T22:24:47.386Z,8.67
2018-06-05T22:27:15.365Z,8.80
2018-06-05T22:29:43.354Z,8.23
2018-06-05T22:32:11.432Z,9.23
2018-06-05T22:34:39.477Z,8.63
2018-06-05T22:37:07.483Z,9.30
2018-06-05T22:39:35.477Z,8.43
2018-06-05T22:42:03.478Z,8.53
2018-06-05T22:44:31.505Z,8.93
2018-06-05T22:46:59.530Z,9.03
2018-06-05T22:49:27.556Z,9.50
2018-06-05T22:51:55.585Z,8.37
2018-06-05T22:54:23.606Z,9.17
2018-06-05T22:56:51.618Z,9.03
2018-06-05T22:59:19.711Z,9.77
2018-06-05T23:01:47.687Z,8.90
2018-06-05T23:04:15.749Z,8.90
2018-06-05T23:06:43.785Z,9.03
2018-06-05T23:09:11.791Z,8.27
2018-06-05T23:11:39.736Z,8.37
2018-06-05T23:14:07.763Z,9.80
2018-06-05T23:16:35.786Z,9.43
2018-06-05T23:19:03.854Z,8.80
2018-06-05T23:21:31.920Z,9.43
2018-06-05T23:23:59.960Z,9.60
2018-06-05T23:26:27.997Z,9.67
2018-06-05T23:28:55.979Z,9.33
2018-06-05T23:31:23.941Z,9.47
2018-06-05T23:33:51.948Z,9.60
2018-06-05T23:36:19.935Z,9.20
2018-06-05T23:38:48.018Z,9.60
2018-06-05T23:41:16.166Z,9.73
2018-06-05T23:43:44.164Z,9.67
2018-06-05T23:46:12.218Z,9.40
2018-06-05T23:48:40.308Z,10.03
2018-06-05T23:51:08.277Z,10.40
2018-06-05T23:53:36.369Z,10.17
2018-06-05T23:56:04.490Z,9.93
2018-06-05T23:58:32.453Z,9.87
